Sedona, AZ

10:52 PM MST on August 24, 2016 (GMT -0700)
Sedona

Weather History for KSEZ - February, 2013

Change the Weather History Date:

Friday, February 8, 2013

  Actual Average Record
Temperature  
Mean Temperature 45 °F -  
Max Temperature 53 °F 57 °F 71 °F (2015)
Min Temperature 37 °F 33 °F 37 °F (2013)
Degree Days  
Heating Degree Days 20    
Moisture  
Dew Point 28 °F    
Average Humidity 49    
Maximum Humidity 62    
Minimum Humidity 33    
Precipitation  
Precipitation 0.00 in - - ()
Sea Level Pressure  
Sea Level Pressure 29.83 in    
Wind  
Wind Speed 11 mph (South)    
Max Wind Speed 31 mph    
Max Gust Speed 43 mph    
Visibility 10 miles    
Events      
Averages and records for this station are not official NWS values.
T = Trace of Precipitation, MM = Missing Value Source: NWS Daily Summary

Daily Weather History Graph

Daily Weather History Graph

Search for Another Location

Airport or City:

Trip Planner

Search our weather history database for the weather conditions in past years. The results will help you decide how hot, cold, wet, or windy it might be!

Date:

Astronomy

Feb. 08, 2013 Rise Set
Actual Time 7:19 AM MST 6:03 PM MST
Civil Twilight 6:53 AM MST 6:29 PM MST
Nautical Twilight 6:23 AM MST 6:59 PM MST
Astronomical Twilight 5:54 AM MST 7:29 PM MST
Moon 5:49 AM MST (2/8) 4:42 PM MST (2/8)
Length of Visible Light 11h 36m
Length of Day
10h 44m
Waning Crescent, 3% of the Moon is Illuminated
Feb 8
Waning Crescent
Feb 10
New
Feb 17
First Quarter
Feb 25
Full
Mar 4
Last Quarter

Hourly Weather History & Observations

Time (MST) Temp. Windchill Dew Point Humidity Pressure Visibility Wind Dir Wind Speed Gust Speed Precip Events Conditions
12:15 AM 46.4 °F 45.2 °F 33.8 °F 62% 29.99 in 10.0 mi SE 3.5 mph - N/A   Clear
12:35 AM 46.4 °F - 33.8 °F 62% 29.99 in 10.0 mi Calm Calm - N/A   Clear
12:55 AM 46.4 °F 44.3 °F 33.8 °F 62% 29.98 in 10.0 mi SE 4.6 mph - N/A   Clear
1:15 AM 46.4 °F 45.2 °F 33.8 °F 62% 29.97 in 10.0 mi ESE 3.5 mph - N/A   Clear
1:35 AM 46.4 °F 44.3 °F 33.8 °F 62% 29.96 in 10.0 mi SSE 4.6 mph - N/A   Clear
1:55 AM 46.4 °F 44.3 °F 33.8 °F 62% 29.96 in 10.0 mi SSE 4.6 mph - N/A   Clear
2:15 AM 46.4 °F 43.5 °F 33.8 °F 62% 29.95 in 10.0 mi South 5.8 mph - N/A   Clear
2:55 AM 46.4 °F - 33.8 °F 62% 29.93 in 10.0 mi Calm Calm - N/A   Clear
3:15 AM 46.4 °F 42.4 °F 33.8 °F 62% 29.92 in 10.0 mi SSE 8.1 mph - N/A   Clear
3:35 AM 46.4 °F 41.9 °F 33.8 °F 62% 29.91 in 10.0 mi SSE 9.2 mph - N/A   Clear
3:55 AM 46.4 °F 41.9 °F 33.8 °F 62% 29.91 in 10.0 mi SSE 9.2 mph - N/A   Clear
4:15 AM 46.4 °F 42.4 °F 33.8 °F 62% 29.89 in 10.0 mi SSE 8.1 mph - N/A   Clear
4:35 AM 46.4 °F 42.4 °F 32.0 °F 57% 29.88 in 10.0 mi SSE 8.1 mph - N/A   Clear
4:55 AM 44.6 °F 40.7 °F 32.0 °F 61% 29.87 in 10.0 mi SSE 6.9 mph - N/A   Clear
5:15 AM 46.4 °F 41.5 °F 32.0 °F 57% 29.87 in 10.0 mi SSE 10.4 mph - N/A   Scattered Clouds
5:35 AM 46.4 °F 41.1 °F 32.0 °F 57% 29.87 in 10.0 mi SSE 11.5 mph - N/A   Mostly Cloudy
5:55 AM 46.4 °F 41.1 °F 32.0 °F 57% 29.87 in 10.0 mi SSE 11.5 mph - N/A   Mostly Cloudy
6:15 AM 46.4 °F 40.4 °F 32.0 °F 57% 29.86 in 10.0 mi SSE 13.8 mph - N/A   Scattered Clouds
6:35 AM 46.4 °F 40.1 °F 32.0 °F 57% 29.85 in 10.0 mi South 15.0 mph - N/A   Scattered Clouds
6:55 AM 46.4 °F 40.4 °F 32.0 °F 57% 29.84 in 10.0 mi South 13.8 mph 23.0 mph N/A   Mostly Cloudy
7:15 AM 46.4 °F 39.5 °F 32.0 °F 57% 29.85 in 10.0 mi SSE 17.3 mph - N/A   Overcast
7:35 AM 46.4 °F 40.4 °F 32.0 °F 57% 29.84 in 10.0 mi SSE 13.8 mph 21.9 mph N/A   Overcast
7:55 AM 46.4 °F 40.4 °F 33.8 °F 62% 29.85 in 10.0 mi South 13.8 mph 23.0 mph N/A   Overcast
8:15 AM 46.4 °F 40.7 °F 33.8 °F 62% 29.85 in 10.0 mi South 12.7 mph 18.4 mph N/A   Overcast
8:35 AM 46.4 °F 41.1 °F 33.8 °F 62% 29.86 in 10.0 mi SSW 11.5 mph - N/A   Overcast
8:55 AM 46.4 °F 43.5 °F 33.8 °F 62% 29.87 in 10.0 mi SW 5.8 mph - N/A   Overcast
9:15 AM 46.4 °F 44.3 °F 33.8 °F 62% 29.87 in 10.0 mi South 4.6 mph - N/A   Mostly Cloudy
9:35 AM 50.0 °F - 35.6 °F 58% 29.86 in 10.0 mi South 8.1 mph - N/A   Scattered Clouds
9:55 AM 51.8 °F - 32.0 °F 47% 29.86 in 10.0 mi SSW 16.1 mph 23.0 mph N/A   Clear
10:15 AM 53.6 °F - 30.2 °F 41% 29.85 in 10.0 mi South 12.7 mph 25.3 mph N/A   Scattered Clouds
10:35 AM 51.8 °F - 26.6 °F 38% 29.85 in 10.0 mi SSW 21.9 mph 34.5 mph N/A   Mostly Cloudy
10:55 AM 51.8 °F - 28.4 °F 41% 29.84 in 10.0 mi SSW 26.5 mph 36.8 mph N/A   Mostly Cloudy
11:15 AM 51.8 °F - 28.4 °F 41% 29.84 in 10.0 mi SSW 27.6 mph 36.8 mph N/A   Scattered Clouds
11:35 AM 53.6 °F - 28.4 °F 38% 29.84 in 10.0 mi SSW 19.6 mph 32.2 mph N/A   Clear
11:55 AM 51.8 °F - 28.4 °F 41% 29.83 in 10.0 mi SSW 24.2 mph 35.7 mph N/A   Clear
12:15 PM 53.6 °F - 30.2 °F 41% 29.82 in 10.0 mi SSW 25.3 mph 35.7 mph N/A   Clear
12:35 PM 51.8 °F - 30.2 °F 44% 29.80 in 10.0 mi SW 27.6 mph 41.4 mph N/A   Scattered Clouds
12:55 PM 51.8 °F - 28.4 °F 41% 29.80 in 10.0 mi SSW 28.8 mph 38.0 mph N/A   Scattered Clouds
1:15 PM 51.8 °F - 30.2 °F 44% 29.79 in 10.0 mi SSW 20.7 mph 35.7 mph N/A   Mostly Cloudy
1:35 PM 51.8 °F - 28.4 °F 41% 29.79 in 10.0 mi SW 23.0 mph 34.5 mph N/A   Mostly Cloudy
1:55 PM 51.8 °F - 28.4 °F 41% 29.78 in 10.0 mi SSW 29.9 mph 40.3 mph N/A   Mostly Cloudy
2:15 PM 51.8 °F - 26.6 °F 38% 29.78 in 10.0 mi SSW 23.0 mph 40.3 mph N/A   Scattered Clouds
2:35 PM 51.8 °F - 24.8 °F 35% 29.78 in 10.0 mi SSW 31.1 mph 42.6 mph N/A   Scattered Clouds
2:55 PM 50.0 °F - 26.6 °F 40% 29.77 in 10.0 mi South 23.0 mph 39.1 mph N/A   Mostly Cloudy
3:15 PM 50.0 °F - 26.6 °F 40% 29.77 in 10.0 mi South 19.6 mph 35.7 mph N/A   Mostly Cloudy
3:35 PM 51.8 °F - 26.6 °F 38% 29.76 in 10.0 mi South 21.9 mph 36.8 mph N/A   Scattered Clouds
3:55 PM 50.0 °F - 26.6 °F 40% 29.77 in 10.0 mi South 18.4 mph 34.5 mph N/A   Mostly Cloudy
4:15 PM 50.0 °F - 23.0 °F 35% 29.77 in 10.0 mi South 25.3 mph 38.0 mph N/A   Mostly Cloudy
4:35 PM 50.0 °F - 24.8 °F 37% 29.77 in 10.0 mi South 16.1 mph 31.1 mph N/A   Scattered Clouds
4:55 PM 50.0 °F - 26.6 °F 40% 29.76 in 10.0 mi South 21.9 mph 34.5 mph N/A   Scattered Clouds
5:15 PM 48.2 °F - 26.6 °F 43% 29.77 in 10.0 mi South 19.6 mph 28.8 mph N/A   Mostly Cloudy
5:55 PM 44.6 °F 37.4 °F 26.6 °F 49% 29.76 in 10.0 mi South 16.1 mph 27.6 mph N/A   Scattered Clouds
6:15 PM 44.6 °F 38.4 °F 26.6 °F 49% 29.77 in 10.0 mi South 12.7 mph 26.5 mph N/A   Scattered Clouds
6:35 PM 44.6 °F 37.8 °F 26.6 °F 49% 29.77 in 10.0 mi South 15.0 mph 25.3 mph N/A   Mostly Cloudy
6:55 PM 44.6 °F 37.8 °F 24.8 °F 46% 29.77 in 10.0 mi South 15.0 mph 21.9 mph N/A   Overcast
7:15 PM 42.8 °F 34.8 °F 23.0 °F 46% 29.77 in 10.0 mi SSW 17.3 mph 23.0 mph N/A   Scattered Clouds
7:35 PM 42.8 °F 36.2 °F 21.2 °F 42% 29.77 in 10.0 mi South 12.7 mph 24.2 mph N/A   Clear
7:55 PM 42.8 °F 35.8 °F 21.2 °F 42% 29.77 in 10.0 mi South 13.8 mph 20.7 mph N/A   Scattered Clouds
8:15 PM 41.0 °F 34.7 °F 19.4 °F 42% 29.77 in 10.0 mi South 10.4 mph 21.9 mph N/A   Scattered Clouds
8:35 PM 41.0 °F 34.7 °F 15.8 °F 36% 29.77 in 10.0 mi SSW 10.4 mph 17.3 mph N/A   Clear
8:55 PM 41.0 °F 35.8 °F 14.0 °F 33% 29.77 in 10.0 mi SW 8.1 mph - N/A   Mostly Cloudy
9:15 PM 41.0 °F 35.8 °F 14.0 °F 33% 29.77 in 10.0 mi WSW 8.1 mph - N/A   Overcast
9:35 PM 41.0 °F 37.1 °F 14.0 °F 33% 29.76 in 10.0 mi WSW 5.8 mph - N/A   Overcast
9:55 PM 41.0 °F 37.1 °F 14.0 °F 33% 29.77 in 10.0 mi SSW 5.8 mph - N/A   Overcast
10:15 PM 41.0 °F 35.2 °F 14.0 °F 33% 29.76 in 10.0 mi South 9.2 mph - N/A   Overcast
10:35 PM 41.0 °F 34.7 °F 14.0 °F 33% 29.76 in 10.0 mi SSE 10.4 mph 20.7 mph N/A   Overcast
10:55 PM 39.2 °F 33.6 °F 19.4 °F 45% 29.75 in 10.0 mi South 8.1 mph - N/A   Overcast
11:15 PM 39.2 °F 31.6 °F 21.2 °F 49% 29.74 in 10.0 mi SSE 12.7 mph 20.7 mph N/A   Overcast
11:35 PM 37.4 °F 29.8 °F 23.0 °F 56% 29.74 in 10.0 mi South 11.5 mph 20.7 mph N/A   Overcast
11:55 PM 37.4 °F 29.8 °F 23.0 °F 56% 29.74 in 10.0 mi South 11.5 mph - N/A   Scattered Clouds